Time;durP1;ratioP1;P1;durP2;ratioP2;P2;SDS_P1;SDS_P2;PMS_P1;PMS_P2;Temp;Humidity;BMP_temperature;BMP_pressure;BME280_temperature;BME280_humidity;BME280_pressure;Samples;Min_cycle;Max_cycle;Signal;HPM_P1;HPM_P2
2024/01/31 00:01:42;;;;;;;20.45;18.35;;;;;;;7.27;80.92;99762.09;5072094;28;20043;-71
2024/01/31 00:04:07;;;;;;;22.58;19.02;;;;;;;7.27;80.59;99765.59;5077093;28;20496;-70
2024/01/31 00:06:32;;;;;;;20.90;18.25;;;;;;;7.26;80.97;99760.44;5080379;28;20084;-71
2024/01/31 00:09:00;;;;;;;23.15;18.08;;;;;;;7.27;81.32;99756.72;5055607;28;20028;-72
2024/01/31 00:11:26;;;;;;;20.05;17.67;;;;;;;7.30;80.63;99751.00;5091158;28;20149;-72
2024/01/31 00:13:51;;;;;;;19.40;17.30;;;;;;;7.25;80.78;99756.09;5085529;28;20099;-71
2024/01/31 00:16:17;;;;;;;19.80;17.05;;;;;;;7.29;80.74;99757.38;5080785;28;20036;-71
2024/01/31 00:18:42;;;;;;;21.15;16.83;;;;;;;7.20;80.79;99745.09;5084772;28;20020;-69
2024/01/31 00:21:08;;;;;;;21.23;18.98;;;;;;;7.28;80.97;99766.44;5083660;28;20514;-70
2024/01/31 00:23:33;;;;;;;20.30;18.13;;;;;;;7.19;80.37;99756.84;5076318;28;20020;-70
2024/01/31 00:25:59;;;;;;;20.92;18.58;;;;;;;7.15;81.10;99759.03;5081727;28;20455;-69
2024/01/31 00:28:25;;;;;;;20.58;17.98;;;;;;;7.28;81.64;99758.41;5082949;28;20470;-69
2024/01/31 00:30:50;;;;;;;20.10;17.98;;;;;;;7.29;81.55;99765.41;5082190;28;20032;-69
2024/01/31 00:33:15;;;;;;;20.83;17.42;;;;;;;7.31;80.90;99768.72;5078269;28;20032;-70
2024/01/31 00:35:41;;;;;;;21.90;17.55;;;;;;;7.33;80.86;99766.69;5075740;28;20039;-70
2024/01/31 00:38:06;;;;;;;19.67;17.45;;;;;;;7.21;81.27;99741.41;5080371;28;20491;-70
2024/01/31 00:40:31;;;;;;;19.88;17.73;;;;;;;7.35;81.08;99764.69;5074064;28;20036;-70
2024/01/31 00:42:57;;;;;;;23.17;18.05;;;;;;;7.31;81.27;99758.84;5079756;28;20027;-69
2024/01/31 00:45:23;;;;;;;21.45;18.50;;;;;;;7.32;80.82;99765.03;5080134;28;20391;-72
2024/01/31 00:47:48;;;;;;;20.27;17.73;;;;;;;7.35;80.83;99756.66;5076570;28;20099;-71
2024/01/31 00:50:14;;;;;;;22.83;17.52;;;;;;;7.36;81.12;99755.63;5073903;28;20120;-71
2024/01/31 00:52:42;;;;;;;21.50;19.20;;;;;;;7.38;81.24;99753.56;5079487;28;20020;-71
2024/01/31 00:55:08;;;;;;;24.58;18.50;;;;;;;7.42;81.54;99765.59;5088287;28;20056;-71
2024/01/31 00:57:33;;;;;;;21.45;17.75;;;;;;;7.32;80.93;99749.81;5073696;28;20497;-69
2024/01/31 01:00:00;;;;;;;20.30;18.10;;;;;;;7.40;80.73;99762.25;5082022;28;20032;-71
2024/01/31 01:02:25;;;;;;;21.27;18.30;;;;;;;7.33;80.65;99750.63;5080986;28;20048;-71
2024/01/31 01:04:52;;;;;;;22.92;18.15;;;;;;;7.37;81.32;99768.00;5083093;28;20067;-71
2024/01/31 01:07:18;;;;;;;25.35;19.55;;;;;;;7.25;81.98;99748.88;5081829;28;20031;-72
2024/01/31 01:09:43;;;;;;;22.75;18.73;;;;;;;7.40;82.04;99775.66;5082885;28;20024;-72
2024/01/31 01:12:08;;;;;;;22.20;18.88;;;;;;;7.39;81.06;99768.66;5082288;28;20517;-71
2024/01/31 01:14:34;;;;;;;22.60;19.25;;;;;;;7.30;81.66;99761.72;5083510;28;20040;-72
2024/01/31 01:16:59;;;;;;;21.35;19.05;;;;;;;7.39;81.83;99776.69;5082475;28;20483;-71
2024/01/31 01:19:24;;;;;;;23.27;19.27;;;;;;;7.34;81.69;99769.22;5076180;28;20036;-71
2024/01/31 01:21:50;;;;;;;21.33;19.05;;;;;;;7.24;81.81;99741.00;5079329;28;20074;-71
2024/01/31 01:24:16;;;;;;;23.02;19.08;;;;;;;7.43;82.24;99767.25;5084732;28;20028;-71
2024/01/31 01:26:41;;;;;;;24.67;19.88;;;;;;;7.37;81.51;99765.34;5084748;28;20024;-69
2024/01/31 01:29:07;;;;;;;24.55;19.90;;;;;;;7.43;81.85;99776.13;5078728;28;20036;-72
2024/01/31 01:31:32;;;;;;;22.17;19.63;;;;;;;7.40;82.36;99773.81;5085064;28;20120;-69
2024/01/31 01:33:59;;;;;;;25.17;20.58;;;;;;;7.41;82.64;99775.50;5086563;28;20547;-71
2024/01/31 01:36:25;;;;;;;25.45;21.23;;;;;;;7.35;82.29;99765.50;5082067;28;20024;-68
2024/01/31 01:38:50;;;;;;;25.13;20.02;;;;;;;7.40;81.79;99775.66;5079952;28;20046;-68
2024/01/31 01:41:15;;;;;;;23.15;20.08;;;;;;;7.40;82.26;99775.66;5077672;28;20103;-68
2024/01/31 01:43:42;;;;;;;23.90;19.70;;;;;;;7.44;82.81;99768.94;5080849;28;20032;-68
2024/01/31 01:46:20;;;;;;;29.88;22.05;;;;;;;7.48;82.33;99768.38;5078975;28;20039;-68
2024/01/31 01:48:47;;;;;;;27.55;21.85;;;;;;;7.48;83.08;99770.22;5082292;28;20947;-69
2024/01/31 01:51:17;;;;;;;25.50;22.63;;;;;;;7.51;82.71;99764.50;5078976;28;20095;-69
2024/01/31 01:53:43;;;;;;;25.15;21.33;;;;;;;7.53;82.71;99762.44;5061618;28;20121;-69
2024/01/31 01:56:09;;;;;;;23.33;20.83;;;;;;;7.49;83.62;99761.16;5063356;28;20506;-69
2024/01/31 01:58:36;;;;;;;27.58;20.90;;;;;;;7.53;83.11;99763.28;5074663;28;20112;-70
2024/01/31 02:01:01;;;;;;;25.75;21.42;;;;;;;7.41;83.34;99739.81;5084846;28;20028;-70
2024/01/31 02:03:29;;;;;;;24.48;21.77;;;;;;;7.46;83.06;99740.09;5084766;28;20036;-71
2024/01/31 02:05:56;;;;;;;25.77;20.42;;;;;;;7.44;82.77;99736.78;5092961;28;20050;-70
2024/01/31 02:08:21;;;;;;;23.10;20.63;;;;;;;7.50;83.37;99741.38;5083100;28;20484;-70
2024/01/31 02:10:47;;;;;;;24.88;21.42;;;;;;;7.55;82.55;99745.16;5080652;28;20021;-70
2024/01/31 02:13:12;;;;;;;28.40;21.75;;;;;;;7.56;83.26;99746.81;5077252;28;20040;-71
2024/01/31 02:15:38;;;;;;;25.92;21.25;;;;;;;7.58;83.43;99749.31;5081534;28;20020;-70
2024/01/31 02:18:03;;;;;;;25.30;20.63;;;;;;;7.57;83.10;99747.66;5078892;28;20480;-69
2024/01/31 02:20:29;;;;;;;23.05;20.30;;;;;;;7.52;84.19;99750.88;5077989;28;20031;-70
2024/01/31 02:22:55;;;;;;;24.83;21.23;;;;;;;7.52;84.08;99750.06;5079459;28;20040;-70
2024/01/31 02:25:21;;;;;;;24.98;21.23;;;;;;;7.48;83.54;99740.72;5078987;28;20073;-70
2024/01/31 02:27:46;;;;;;;25.90;22.40;;;;;;;7.48;84.03;99749.59;5081798;28;20040;-71
2024/01/31 02:30:12;;;;;;;26.15;22.73;;;;;;;7.45;83.78;99746.44;5078128;28;20043;-70
2024/01/31 02:32:37;;;;;;;23.67;21.08;;;;;;;7.37;84.57;99736.69;5084207;28;20502;-72
2024/01/31 02:35:04;;;;;;;26.60;22.65;;;;;;;7.44;83.83;99744.81;5088914;28;20036;-70
2024/01/31 02:37:29;;;;;;;25.85;22.88;;;;;;;7.43;84.79;99740.44;5085273;28;20571;-70
2024/01/31 02:39:54;;;;;;;25.55;22.05;;;;;;;7.41;84.40;99737.13;5073990;28;20016;-70
2024/01/31 02:42:20;;;;;;;25.73;22.33;;;;;;;7.42;84.21;99744.16;5083743;28;20036;-70
2024/01/31 02:44:45;;;;;;;26.98;22.70;;;;;;;7.44;83.92;99739.44;5085906;28;20024;-69
2024/01/31 02:47:11;;;;;;;27.55;22.20;;;;;;;7.42;83.98;99739.63;5076524;28;20043;-69
2024/01/31 02:49:36;;;;;;;28.00;23.20;;;;;;;7.44;84.15;99742.13;5083757;28;20031;-69
2024/01/31 02:52:01;;;;;;;28.45;24.48;;;;;;;7.30;84.58;99724.22;5083977;28;20043;-70
2024/01/31 02:54:27;;;;;;;29.75;24.67;;;;;;;7.39;84.87;99749.88;5085124;28;20055;-69
2024/01/31 02:56:52;;;;;;;28.40;24.45;;;;;;;7.36;85.57;99750.25;5084138;28;20415;-70
2024/01/31 02:59:19;;;;;;;30.27;24.80;;;;;;;7.21;85.42;99733.38;5082450;28;20090;-70
2024/01/31 03:01:49;;;;;;;32.25;25.73;;;;;;;7.37;85.58;99758.13;5080391;28;20060;-69
2024/01/31 03:04:14;;;;;;;32.80;27.27;;;;;;;7.30;85.67;99734.94;5079520;28;20081;-70
2024/01/31 03:06:40;;;;;;;30.42;25.65;;;;;;;7.37;86.13;99741.22;5076742;28;20028;-68
2024/01/31 03:09:05;;;;;;;30.77;27.20;;;;;;;7.37;86.17;99741.22;5083520;28;20031;-71
2024/01/31 03:11:31;;;;;;;28.15;24.98;;;;;;;7.39;85.17;99744.53;5077670;28;20423;-70
2024/01/31 03:13:56;;;;;;;31.00;27.33;;;;;;;7.37;86.15;99739.38;5072105;28;20033;-70
2024/01/31 03:16:21;;;;;;;36.20;29.73;;;;;;;7.36;85.90;99744.91;5081427;28;20495;-72
2024/01/31 03:18:47;;;;;;;34.25;28.23;;;;;;;7.35;85.23;99738.69;5084644;28;20040;-70
2024/01/31 03:21:12;;;;;;;36.45;30.30;;;;;;;7.38;85.64;99740.16;5084748;28;20020;-69
2024/01/31 03:23:38;;;;;;;33.75;29.95;;;;;;;7.35;86.21;99732.53;5081508;28;20044;-70
2024/01/31 03:26:03;;;;;;;40.08;31.08;;;;;;;7.34;86.16;99729.00;5077424;28;20013;-69
2024/01/31 03:28:29;;;;;;;38.38;30.35;;;;;;;7.25;86.31;99722.09;5075707;28;20044;-69
2024/01/31 03:30:54;;;;;;;40.78;32.03;;;;;;;7.35;87.58;99737.88;5072774;28;20028;-70
2024/01/31 03:33:19;;;;;;;37.30;32.35;;;;;;;7.35;87.37;99743.25;5071020;28;20082;-70
2024/01/31 03:35:45;;;;;;;41.22;33.47;;;;;;;7.36;87.14;99740.38;5079630;28;20490;-69
2024/01/31 03:38:10;;;;;;;43.10;34.97;;;;;;;7.30;87.37;99757.22;5083934;28;20048;-69
2024/01/31 03:40:36;;;;;;;47.33;36.42;;;;;;;7.33;87.94;99755.97;5080938;28;20094;-69
2024/01/31 03:43:02;;;;;;;47.50;36.40;;;;;;;7.35;87.30;99753.97;5085161;28;20032;-69
2024/01/31 03:45:27;;;;;;;46.47;37.33;;;;;;;7.35;87.63;99759.31;5074525;28;20097;-70
2024/01/31 03:47:53;;;;;;;45.65;37.47;;;;;;;7.34;88.24;99757.66;5071794;28;20034;-71
2024/01/31 03:50:19;;;;;;;54.45;42.08;;;;;;;7.32;88.55;99762.38;5074846;28;20388;-70
2024/01/31 03:52:45;;;;;;;54.10;43.65;;;;;;;7.35;88.39;99764.69;5077528;28;20056;-70
2024/01/31 03:55:11;;;;;;;57.20;43.60;;;;;;;7.29;88.37;99760.06;5081297;28;20435;-70
2024/01/31 03:57:36;;;;;;;55.60;42.88;;;;;;;7.28;89.80;99764.56;5090617;28;20036;-70
2024/01/31 04:00:05;;;;;;;52.17;42.58;;;;;;;7.31;88.54;99758.00;5077417;28;20668;-70
2024/01/31 04:02:32;;;;;;;46.47;38.75;;;;;;;7.28;88.90;99750.38;5085224;28;20028;-70
2024/01/31 04:04:58;;;;;;;59.13;45.10;;;;;;;7.35;89.43;99760.13;5078842;28;20434;-70
2024/01/31 04:07:24;;;;;;;55.45;43.15;;;;;;;7.39;88.93;99755.25;5077163;28;20047;-70
2024/01/31 04:09:49;;;;;;;62.17;45.83;;;;;;;7.39;89.51;99756.09;5079464;28;20027;-70
2024/01/31 04:12:15;;;;;;;76.80;51.90;;;;;;;7.30;89.37;99751.00;5072932;28;20040;-70
2024/01/31 04:14:40;;;;;;;78.43;56.08;;;;;;;7.33;89.01;99766.69;5076944;28;20070;-70
2024/01/31 04:17:05;;;;;;;62.67;45.67;;;;;;;7.18;89.60;99774.75;5081280;28;20032;-70
2024/01/31 04:19:31;;;;;;;57.78;44.95;;;;;;;7.18;89.13;99781.94;5072397;28;20365;-71
2024/01/31 04:21:56;;;;;;;57.50;45.58;;;;;;;7.07;89.91;99783.22;5081039;28;20051;-71
2024/01/31 04:24:22;;;;;;;60.10;47.47;;;;;;;7.06;90.85;99786.09;5073390;28;20032;-70
2024/01/31 04:26:47;;;;;;;63.45;50.75;;;;;;;6.94;91.20;99794.56;5075791;28;20036;-71
2024/01/31 04:29:12;;;;;;;70.50;51.78;;;;;;;6.89;91.52;99796.97;5075315;28;20020;-71
2024/01/31 04:31:38;;;;;;;69.05;53.13;;;;;;;6.90;91.49;99793.28;5072563;28;20389;-72
2024/01/31 04:34:04;;;;;;;69.93;51.35;;;;;;;6.86;91.09;99802.66;5075711;28;20115;-71
2024/01/31 04:36:31;;;;;;;70.13;51.00;;;;;;;6.85;91.28;99801.03;5053809;28;20119;-72
2024/01/31 04:38:56;;;;;;;64.53;48.03;;;;;;;6.84;91.58;99801.19;5077202;28;20031;-72
2024/01/31 04:41:22;;;;;;;77.38;55.90;;;;;;;6.87;91.37;99796.31;5056618;28;20040;-71
2024/01/31 04:43:47;;;;;;;64.68;50.28;;;;;;;6.92;90.70;99801.97;5078058;28;20024;-71
2024/01/31 04:46:13;;;;;;;70.57;52.85;;;;;;;6.97;90.50;99799.56;5076300;28;20119;-72
2024/01/31 04:48:39;;;;;;;75.88;56.10;;;;;;;6.91;90.99;99789.56;5079310;28;20067;-72
2024/01/31 04:51:05;;;;;;;87.13;61.75;;;;;;;6.96;90.74;99811.28;5075824;28;20064;-72
2024/01/31 04:53:30;;;;;;;85.10;61.72;;;;;;;6.86;91.99;99812.56;5070754;28;20396;-72
2024/01/31 04:55:56;;;;;;;92.53;64.53;;;;;;;6.86;91.50;99805.34;5080606;28;20036;-72
2024/01/31 04:58:21;;;;;;;80.20;58.38;;;;;;;6.90;90.99;99814.72;5072463;28;20028;-70
2024/01/31 05:00:47;;;;;;;84.75;59.40;;;;;;;6.92;91.42;99818.03;5081037;28;20032;-72
2024/01/31 05:03:13;;;;;;;89.57;63.30;;;;;;;6.94;90.98;99818.69;5072651;28;20103;-70
2024/01/31 05:05:38;;;;;;;71.40;54.33;;;;;;;6.95;91.27;99827.56;5075918;28;20032;-68
2024/01/31 05:08:05;;;;;;;105.70;69.10;;;;;;;6.96;90.71;99819.31;5074107;28;20391;-70
2024/01/31 05:10:33;;;;;;;93.30;64.38;;;;;;;6.98;90.67;99819.13;5077039;28;20059;-71
2024/01/31 05:12:59;;;;;;;91.45;65.13;;;;;;;6.98;91.35;99822.66;5074776;28;20024;-71
2024/01/31 05:15:24;;;;;;;75.50;54.28;;;;;;;7.00;91.66;99827.00;5079300;28;20507;-71
2024/01/31 05:17:50;;;;;;;100.70;68.53;;;;;;;7.02;90.62;99830.34;5077163;28;20020;-72
2024/01/31 05:20:15;;;;;;;94.05;62.17;;;;;;;7.00;91.69;99829.69;5075183;28;20043;-73
2024/01/31 05:22:40;;;;;;;86.03;59.95;;;;;;;6.94;91.03;99807.13;5080009;28;20106;-72
2024/01/31 05:25:07;;;;;;;119.80;75.65;;;;;;;7.05;90.93;99829.97;5089187;28;20379;-71
2024/01/31 05:27:33;;;;;;;136.50;78.93;;;;;;;7.04;91.33;99825.63;5069907;28;20472;-70
2024/01/31 05:29:58;;;;;;;121.40;74.38;;;;;;;7.01;90.87;99817.94;5079598;28;20040;-70
2024/01/31 05:32:23;;;;;;;96.70;65.72;;;;;;;6.96;90.79;99811.28;5070835;28;20085;-73
2024/01/31 05:34:49;;;;;;;95.57;62.53;;;;;;;7.03;90.77;99824.78;5075127;28;20399;-72
2024/01/31 05:37:14;;;;;;;99.32;64.95;;;;;;;7.03;90.99;99829.31;5079327;28;20032;-71
2024/01/31 05:39:40;;;;;;;112.15;72.07;;;;;;;7.04;91.65;99825.63;5075325;28;20049;-73
2024/01/31 05:42:05;;;;;;;76.32;56.63;;;;;;;6.95;90.66;99804.25;5073250;28;20089;-73
2024/01/31 05:44:30;;;;;;;104.30;66.97;;;;;;;7.03;90.78;99824.78;5071430;28;20029;-73
2024/01/31 05:46:56;;;;;;;81.90;58.22;;;;;;;6.87;91.56;99798.16;5074787;28;20025;-72
2024/01/31 05:49:24;;;;;;;146.90;82.25;;;;;;;6.99;90.26;99818.13;5079030;28;20044;-71
2024/01/31 05:51:51;;;;;;;122.03;74.88;;;;;;;6.95;90.87;99808.81;5076723;28;20024;-71
2024/01/31 05:54:16;;;;;;;152.07;85.72;;;;;;;6.93;91.19;99814.31;5076577;28;20043;-71
2024/01/31 05:56:42;;;;;;;118.50;75.65;;;;;;;6.89;91.02;99818.38;5081463;28;20025;-71
2024/01/31 05:59:08;;;;;;;126.47;75.13;;;;;;;6.91;91.29;99816.34;5079499;28;20036;-71
2024/01/31 06:01:34;;;;;;;145.45;83.05;;;;;;;6.94;90.69;99818.69;5074133;28;20024;-70
2024/01/31 06:04:00;;;;;;;240.70;104.22;;;;;;;6.89;91.25;99810.34;5081434;28;20479;-72
2024/01/31 06:06:25;;;;;;;169.35;91.72;;;;;;;6.84;91.48;99810.06;5075271;28;20024;-72
2024/01/31 06:08:50;;;;;;;201.18;101.82;;;;;;;6.81;91.67;99815.75;5083808;28;20063;-71
2024/01/31 06:11:16;;;;;;;182.98;94.90;;;;;;;6.77;91.48;99813.63;5076568;28;20109;-71
2024/01/31 06:13:41;;;;;;;111.57;73.03;;;;;;;6.78;90.73;99809.97;5079389;28;20458;-71
2024/01/31 06:16:07;;;;;;;162.52;92.25;;;;;;;6.75;91.71;99816.50;5076547;28;20107;-70
2024/01/31 06:18:34;;;;;;;240.65;112.55;;;;;;;6.74;91.76;99814.84;5080757;28;20500;-70
2024/01/31 06:21:00;;;;;;;256.08;107.20;;;;;;;6.74;91.14;99805.97;5078669;28;20132;-71
2024/01/31 06:23:26;;;;;;;396.95;146.07;;;;;;;6.79;91.73;99812.44;5079993;28;20032;-71
2024/01/31 06:25:51;;;;;;;452.85;151.70;;;;;;;6.78;91.13;99821.50;5079577;28;20545;-70
2024/01/31 06:28:17;;;;;;;326.65;134.35;;;;;;;6.80;91.53;99824.00;5077694;28;20040;-70
2024/01/31 06:30:44;;;;;;;324.02;129.68;;;;;;;6.77;91.43;99833.22;5080740;28;20028;-71
2024/01/31 06:33:11;;;;;;;311.73;118.20;;;;;;;6.73;91.31;99829.25;5083167;28;20119;-70
2024/01/31 06:35:40;;;;;;;211.30;97.13;;;;;;;6.55;91.80;99812.66;5077914;28;20483;-71
2024/01/31 06:38:06;;;;;;;102.90;71.03;;;;;;;6.70;92.10;99829.59;5076728;28;20035;-70
2024/01/31 06:40:31;;;;;;;134.32;80.43;;;;;;;6.71;91.44;99827.75;5089448;28;20024;-70
2024/01/31 06:42:57;;;;;;;159.05;84.60;;;;;;;6.71;91.56;99839.28;5086005;28;20036;-70
2024/01/31 06:45:24;;;;;;;120.85;75.88;;;;;;;6.71;91.31;99825.06;5078077;28;20052;-70
2024/01/31 06:47:53;;;;;;;119.90;73.93;;;;;;;6.75;91.47;99837.06;5074942;28;20032;-70
2024/01/31 06:50:18;;;;;;;169.20;87.68;;;;;;;6.75;91.31;99837.91;5080267;28;20024;-70
2024/01/31 06:52:45;;;;;;;202.57;97.00;;;;;;;6.77;92.08;99838.56;5087526;28;20029;-70
2024/01/31 06:55:11;;;;;;;133.57;76.47;;;;;;;6.74;91.84;99833.59;5076416;28;20123;-72
2024/01/31 06:57:37;;;;;;;149.65;83.93;;;;;;;6.73;92.34;99834.59;5082289;28;20536;-71
2024/01/31 07:00:05;;;;;;;251.88;104.18;;;;;;;6.74;92.57;99836.28;5081522;28;20012;-69
2024/01/31 07:02:30;;;;;;;141.40;77.28;;;;;;;6.73;92.34;99833.75;5084119;28;20040;-68
2024/01/31 07:04:56;;;;;;;240.65;101.07;;;;;;;6.69;91.92;99833.28;5079044;28;20028;-70
2024/01/31 07:07:21;;;;;;;318.73;118.57;;;;;;;6.54;92.32;99829.72;5085934;28;20048;-70
2024/01/31 07:09:46;;;;;;;228.35;100.38;;;;;;;6.59;92.13;99831.84;5080088;28;20036;-69
2024/01/31 07:12:12;;;;;;;127.32;73.65;;;;;;;6.60;92.15;99839.72;5077929;28;20479;-69
2024/01/31 07:14:40;;;;;;;181.73;92.25;;;;;;;6.60;92.12;99820.16;5081274;28;20032;-68
2024/01/31 07:17:06;;;;;;;149.23;83.18;;;;;;;6.70;92.32;99837.63;5078341;28;20040;-69
2024/01/31 07:19:32;;;;;;;135.85;77.45;;;;;;;6.73;92.52;99841.78;5073175;28;20036;-70
2024/01/31 07:21:57;;;;;;;125.13;72.18;;;;;;;6.77;91.74;99846.59;5077776;28;20047;-70
2024/01/31 07:24:23;;;;;;;201.45;93.00;;;;;;;6.83;91.77;99840.53;5074890;28;20025;-71
2024/01/31 07:26:48;;;;;;;112.32;69.05;;;;;;;6.83;92.37;99831.66;5078077;28;20106;-70
2024/01/31 07:29:14;;;;;;;303.45;115.80;;;;;;;6.85;91.37;99835.84;5075890;28;20024;-71
2024/01/31 07:31:40;;;;;;;166.77;85.00;;;;;;;6.71;91.84;99815.19;5072302;28;20047;-70
2024/01/31 07:34:05;;;;;;;113.93;68.30;;;;;;;6.86;92.00;99840.16;5085669;28;20020;-70
2024/01/31 07:36:30;;;;;;;261.35;118.20;;;;;;;6.84;91.81;99836.84;5085283;28;20032;-71
2024/01/31 07:38:56;;;;;;;131.15;77.72;;;;;;;6.76;92.10;99834.25;5072341;28;20522;-70
2024/01/31 07:41:21;;;;;;;170.02;82.90;;;;;;;6.77;92.90;99846.59;5089910;28;20035;-71
2024/01/31 07:43:46;;;;;;;170.70;86.15;;;;;;;6.75;92.31;99839.75;5076757;28;20103;-70
2024/01/31 07:46:12;;;;;;;177.80;88.20;;;;;;;6.84;92.10;99852.91;5077089;28;20035;-71
2024/01/31 07:48:37;;;;;;;196.38;90.75;;;;;;;6.77;92.53;99835.03;5080068;28;20033;-70
2024/01/31 07:51:04;;;;;;;133.15;72.03;;;;;;;6.92;92.27;99850.16;5077243;28;20045;-70
2024/01/31 07:53:30;;;;;;;127.97;70.10;;;;;;;6.89;92.15;99838.97;5079125;28;20119;-71
2024/01/31 07:55:56;;;;;;;137.18;73.25;;;;;;;7.02;92.53;99859.78;5080320;28;20475;-70
2024/01/31 07:58:21;;;;;;;187.77;88.82;;;;;;;7.05;91.21;99870.97;5081313;28;20495;-71
2024/01/31 08:00:46;;;;;;;147.98;77.60;;;;;;;6.96;92.41;99867.53;5076791;28;20531;-71
2024/01/31 08:03:12;;;;;;;154.00;90.97;;;;;;;7.01;92.31;99879.53;5074100;28;20024;-71
2024/01/31 08:05:37;;;;;;;156.48;85.50;;;;;;;6.97;92.31;99869.22;5078834;28;20404;-70
2024/01/31 08:08:03;;;;;;;186.32;108.03;;;;;;;7.07;92.71;99874.28;5075518;28;20458;-71
2024/01/31 08:10:28;;;;;;;174.80;96.25;;;;;;;7.08;92.94;99869.78;5072349;28;20052;-71
2024/01/31 08:12:53;;;;;;;166.15;87.97;;;;;;;7.14;92.36;99877.09;5073301;28;20132;-72
2024/01/31 08:15:19;;;;;;;132.98;74.30;;;;;;;7.16;92.40;99878.59;5073560;28;20052;-70
2024/01/31 08:17:44;;;;;;;125.53;68.70;;;;;;;7.20;92.05;99871.84;5083604;28;20024;-71
2024/01/31 08:20:10;;;;;;;105.00;62.92;;;;;;;7.24;92.14;99865.09;5073755;28;20028;-71
2024/01/31 08:22:35;;;;;;;115.20;68.38;;;;;;;7.26;92.00;99867.63;5079524;28;20039;-72
2024/01/31 08:25:01;;;;;;;98.82;63.40;;;;;;;7.28;91.51;99876.31;5078956;28;20415;-71
2024/01/31 08:27:26;;;;;;;110.78;67.60;;;;;;;7.32;91.92;99874.91;5073756;28;20103;-72
2024/01/31 08:29:52;;;;;;;99.68;63.78;;;;;;;7.33;91.55;99879.25;5080365;28;20051;-72
2024/01/31 08:32:17;;;;;;;98.18;62.30;;;;;;;7.31;91.34;99866.03;5088023;28;20040;-71
2024/01/31 08:34:43;;;;;;;104.93;63.88;;;;;;;7.38;92.33;99871.50;5082213;28;20037;-71
2024/01/31 08:37:09;;;;;;;106.78;64.35;;;;;;;7.27;91.68;99858.53;5071706;28;20051;-73
2024/01/31 08:39:34;;;;;;;102.53;63.13;;;;;;;7.42;92.13;99878.19;5077250;28;20032;-71
2024/01/31 08:42:00;;;;;;;113.25;68.78;;;;;;;7.36;91.84;99862.81;5073888;28;20492;-71
2024/01/31 08:44:25;;;;;;;99.38;65.43;;;;;;;7.41;91.45;99865.78;5073318;28;20084;-70
2024/01/31 08:46:52;;;;;;;84.43;58.30;;;;;;;7.50;91.57;99883.44;5081059;28;20020;-71
2024/01/31 08:49:17;;;;;;;106.07;67.47;;;;;;;7.55;92.19;99889.09;5088305;28;20032;-70
2024/01/31 08:51:42;;;;;;;91.43;63.67;;;;;;;7.57;91.67;99874.47;5085746;28;20445;-71
2024/01/31 08:54:08;;;;;;;113.13;73.05;;;;;;;7.55;92.00;99873.00;5079651;28;20123;-71
2024/01/31 08:56:33;;;;;;;103.30;69.22;;;;;;;7.67;91.00;99876.91;5084594;28;20099;-71
2024/01/31 08:58:59;;;;;;;94.47;64.75;;;;;;;7.66;90.86;99859.97;5076899;28;20526;-71
2024/01/31 09:01:25;;;;;;;81.65;55.80;;;;;;;7.76;91.27;99875.78;5071400;28;20472;-71
2024/01/31 09:03:50;;;;;;;79.28;52.25;;;;;;;7.83;91.15;99882.06;5079746;28;20052;-70
2024/01/31 09:06:16;;;;;;;78.28;53.30;;;;;;;7.89;90.90;99873.28;5082170;28;20090;-72
2024/01/31 09:08:42;;;;;;;69.82;51.10;;;;;;;7.74;90.65;99840.28;5079162;28;20031;-72
2024/01/31 09:11:07;;;;;;;70.90;49.10;;;;;;;7.97;91.15;99878.56;5075279;28;20073;-72
2024/01/31 09:13:33;;;;;;;72.50;47.35;;;;;;;7.85;90.57;99874.66;5078492;28;20043;-72
2024/01/31 09:15:59;;;;;;;63.95;46.72;;;;;;;7.95;90.96;99879.75;5086455;28;20051;-73
2024/01/31 09:18:25;;;;;;;61.58;43.30;;;;;;;7.98;91.30;99885.56;5064028;28;20036;-72
2024/01/31 09:20:50;;;;;;;54.40;40.85;;;;;;;8.08;90.25;99867.34;5077487;28;20078;-72
2024/01/31 09:23:15;;;;;;;55.88;40.63;;;;;;;8.17;90.24;99865.38;5079106;28;20041;-72
2024/01/31 09:25:41;;;;;;;49.63;38.63;;;;;;;8.09;90.49;99866.31;5076307;28;20020;-70
2024/01/31 09:28:06;;;;;;;55.53;39.38;;;;;;;8.06;90.35;99847.91;5078378;28;20046;-73
2024/01/31 09:30:32;;;;;;;48.80;37.92;;;;;;;8.17;90.87;99868.06;5078260;28;20507;-72
2024/01/31 09:32:57;;;;;;;49.65;36.35;;;;;;;8.09;90.76;99860.13;5080380;28;20038;-72
2024/01/31 09:35:22;;;;;;;56.67;40.55;;;;;;;8.15;90.61;99860.19;5084441;28;20391;-71
2024/01/31 09:37:48;;;;;;;57.35;43.28;;;;;;;8.17;90.74;99873.41;5092611;28;20040;-71
2024/01/31 09:40:15;;;;;;;41.60;30.92;;;;;;;8.03;90.24;99880.47;5090565;28;20376;-72
2024/01/31 09:42:43;;;;;;;43.08;33.08;;;;;;;8.00;90.38;99880.88;5081394;28;20040;-71
2024/01/31 09:45:11;;;;;;;42.33;31.40;;;;;;;8.05;90.41;99891.03;5076986;28;20020;-71
2024/01/31 09:47:39;;;;;;;37.92;29.98;;;;;;;8.07;89.85;99905.94;5081961;28;20044;-71
2024/01/31 09:50:05;;;;;;;39.17;29.85;;;;;;;8.04;89.68;99906.28;5084809;28;20099;-71
2024/01/31 09:52:33;;;;;;;44.10;31.80;;;;;;;8.10;89.59;99904.69;5087225;28;20491;-71
2024/01/31 09:54:59;;;;;;;40.78;30.67;;;;;;;8.10;89.33;99905.53;5085112;28;20024;-71
2024/01/31 09:57:25;;;;;;;39.88;32.25;;;;;;;8.08;89.03;99910.25;5083835;28;20095;-70
2024/01/31 09:59:51;;;;;;;41.53;32.88;;;;;;;8.20;88.64;99890.00;5084124;28;20028;-71
2024/01/31 10:02:17;;;;;;;41.33;32.65;;;;;;;8.32;88.26;99888.53;5083688;28;20050;-71
2024/01/31 10:04:49;;;;;;;40.70;30.80;;;;;;;8.44;87.88;99885.34;5079378;28;20026;-71
2024/01/31 10:07:30;;;;;;;39.45;30.15;;;;;;;8.33;87.92;99884.81;5075112;28;20045;-71
2024/01/31 10:09:56;;;;;;;40.47;31.20;;;;;;;8.22;87.79;99877.22;5080272;28;20094;-72
2024/01/31 10:12:22;;;;;;;58.40;44.50;;;;;;;8.31;88.30;99892.22;5082641;28;20044;-71
2024/01/31 10:14:55;;;;;;;58.67;48.97;;;;;;;8.18;87.68;99881.31;5089086;28;20039;-71
2024/01/31 10:17:20;;;;;;;42.92;32.25;;;;;;;8.26;88.11;99894.63;5087701;28;20554;-71
2024/01/31 10:19:46;;;;;;;34.10;27.73;;;;;;;8.22;87.89;99904.06;5078337;28;20067;-71
2024/01/31 10:22:12;;;;;;;32.40;26.50;;;;;;;8.17;87.69;99906.47;5075044;28;20048;-72
2024/01/31 10:24:40;;;;;;;36.00;27.95;;;;;;;8.27;86.58;99904.34;5085009;28;20024;-70
2024/01/31 10:27:08;;;;;;;33.55;27.45;;;;;;;8.28;86.19;99897.94;5083246;28;20041;-70
2024/01/31 10:29:34;;;;;;;32.05;25.50;;;;;;;8.27;86.72;99901.69;5076368;28;20085;-71
2024/01/31 10:32:00;;;;;;;31.25;25.38;;;;;;;8.38;86.48;99896.84;5086874;28;20036;-71
2024/01/31 10:34:27;;;;;;;30.00;24.35;;;;;;;8.38;86.43;99892.28;5091883;28;20056;-71
2024/01/31 10:36:54;;;;;;;29.38;22.85;;;;;;;8.50;85.39;99889.94;5090998;28;20042;-71
2024/01/31 10:39:20;;;;;;;27.33;22.70;;;;;;;8.52;85.59;99888.72;5083062;28;20032;-71
2024/01/31 10:41:47;;;;;;;25.55;21.98;;;;;;;8.53;84.78;99894.94;5072420;28;20381;-71
2024/01/31 10:44:14;;;;;;;26.67;20.58;;;;;;;8.50;84.36;99880.03;5081393;28;20032;-72
2024/01/31 10:46:40;;;;;;;23.98;19.42;;;;;;;8.65;84.22;99893.44;5064662;28;20036;-71
2024/01/31 10:49:05;;;;;;;28.83;20.80;;;;;;;8.50;83.26;99863.94;5061403;28;20528;-72
2024/01/31 10:51:32;;;;;;;25.88;22.30;;;;;;;8.67;83.18;99891.38;5083282;28;20070;-72
2024/01/31 10:53:58;;;;;;;30.45;23.27;;;;;;;8.59;83.23;99878.09;5080368;28;20384;-71
2024/01/31 10:56:24;;;;;;;27.55;21.10;;;;;;;8.72;83.06;99867.47;5077270;28;20040;-72
2024/01/31 10:58:51;;;;;;;23.40;20.80;;;;;;;8.72;82.91;99848.66;5086547;28;20036;-71
2024/01/31 11:01:17;;;;;;;24.42;20.67;;;;;;;8.96;82.41;99859.03;5082428;28;20040;-71
2024/01/31 11:03:46;;;;;;;23.05;20.58;;;;;;;8.89;82.81;99853.56;5056789;28;20031;-71
2024/01/31 11:06:11;;;;;;;23.10;18.60;;;;;;;9.00;81.97;99854.94;5083655;28;20463;-71
2024/01/31 11:08:39;;;;;;;23.95;19.02;;;;;;;9.07;81.56;99844.22;5083978;28;20031;-71
2024/01/31 11:11:10;;;;;;;24.63;18.83;;;;;;;9.22;81.50;99848.47;5077624;28;20037;-71
2024/01/31 11:13:35;;;;;;;24.13;18.55;;;;;;;9.29;81.16;99849.34;5074753;28;20032;-71
2024/01/31 11:16:01;;;;;;;21.73;18.25;;;;;;;9.32;81.04;99851.66;5076341;28;20361;-72